createdAt,value
2023-04-30T00:01:38.673Z,10.38
2023-04-30T00:04:06.436Z,10.23
2023-04-30T00:06:34.091Z,10.10
2023-04-30T00:09:01.471Z,10.52
2023-04-30T00:11:29.065Z,10.23
2023-04-30T00:13:57.148Z,10.40
2023-04-30T00:16:24.601Z,9.75
2023-04-30T00:18:52.263Z,9.93
2023-04-30T00:21:19.662Z,10.63
2023-04-30T00:23:47.055Z,10.63
2023-04-30T00:26:15.555Z,10.15
2023-04-30T00:28:44.082Z,10.57
2023-04-30T00:31:11.433Z,11.45
2023-04-30T00:33:39.492Z,10.02
2023-04-30T00:36:06.872Z,10.00
2023-04-30T00:38:34.252Z,10.57
2023-04-30T00:41:01.931Z,10.85
2023-04-30T00:43:29.404Z,10.25
2023-04-30T00:45:56.910Z,10.23
2023-04-30T00:48:25.016Z,11.00
2023-04-30T00:50:52.454Z,10.18
2023-04-30T00:53:19.826Z,9.70
2023-04-30T00:55:47.801Z,10.40
2023-04-30T00:58:15.281Z,10.35
2023-04-30T01:00:47.128Z,10.05
2023-04-30T01:03:14.979Z,10.18
2023-04-30T01:05:42.454Z,10.13
2023-04-30T01:08:09.906Z,9.75
2023-04-30T01:10:52.259Z,10.05
2023-04-30T01:13:29.801Z,10.80
2023-04-30T01:16:00.726Z,10.45
2023-04-30T01:18:30.117Z,10.93
2023-04-30T01:21:04.255Z,10.35
2023-04-30T01:23:34.451Z,9.63
2023-04-30T01:26:11.312Z,10.57
2023-04-30T01:28:38.867Z,10.00
2023-04-30T01:31:18.161Z,10.13
2023-04-30T01:33:45.684Z,10.40
2023-04-30T01:36:35.220Z,10.52
2023-04-30T01:39:11.712Z,10.48
2023-04-30T01:41:51.045Z,10.55
2023-04-30T01:44:34.378Z,11.18
2023-04-30T01:47:07.859Z,10.65
2023-04-30T01:49:48.191Z,11.65
2023-04-30T01:52:19.048Z,11.60
2023-04-30T01:54:51.622Z,11.63
2023-04-30T01:57:32.347Z,10.50
2023-04-30T01:59:59.698Z,10.63
2023-04-30T02:02:27.545Z,10.20
2023-04-30T02:04:55.257Z,9.68
2023-04-30T02:07:41.211Z,10.38
2023-04-30T02:10:09.446Z,10.52
2023-04-30T02:12:36.872Z,10.75
2023-04-30T02:15:04.940Z,10.70
2023-04-30T02:17:33.008Z,10.30
2023-04-30T02:20:00.491Z,10.52
2023-04-30T02:22:27.896Z,10.15
2023-04-30T02:24:55.895Z,9.82
2023-04-30T02:27:23.902Z,10.77
2023-04-30T02:29:51.473Z,10.95
2023-04-30T02:32:19.177Z,10.50
2023-04-30T02:34:46.596Z,10.15
2023-04-30T02:37:13.971Z,11.73
2023-04-30T02:39:41.878Z,12.23
2023-04-30T02:42:09.297Z,12.27
2023-04-30T02:44:36.746Z,11.05
2023-04-30T02:47:04.835Z,11.93
2023-04-30T02:49:33.326Z,11.55
2023-04-30T02:52:01.059Z,11.27
2023-04-30T02:54:28.793Z,12.57
2023-04-30T02:56:56.772Z,13.77
2023-04-30T02:59:24.148Z,13.15
2023-04-30T03:01:51.803Z,12.88
2023-04-30T03:04:19.197Z,12.50
2023-04-30T03:06:46.673Z,11.88
2023-04-30T03:09:15.255Z,12.90
2023-04-30T03:11:42.628Z,12.07
2023-04-30T03:14:10.008Z,12.90
2023-04-30T03:16:37.758Z,13.13
2023-04-30T03:19:05.184Z,13.07
2023-04-30T03:21:32.730Z,14.93
2023-04-30T03:24:00.405Z,12.73
2023-04-30T03:26:27.995Z,13.85
2023-04-30T03:28:55.854Z,15.43
2023-04-30T03:31:24.135Z,14.40
2023-04-30T03:33:51.564Z,15.43
2023-04-30T03:36:18.945Z,15.20
2023-04-30T03:38:46.626Z,14.90
2023-04-30T03:41:13.985Z,14.93
2023-04-30T03:43:41.411Z,14.43
2023-04-30T03:46:09.174Z,14.15
2023-04-30T03:48:36.604Z,15.13
2023-04-30T03:51:04.451Z,14.68
2023-04-30T03:53:32.094Z,14.77
2023-04-30T03:55:59.549Z,15.75
2023-04-30T03:58:27.347Z,14.98
2023-04-30T04:00:55.038Z,15.60
2023-04-30T04:03:23.173Z,15.73
2023-04-30T04:05:50.565Z,16.02
2023-04-30T04:08:18.344Z,16.40
2023-04-30T04:10:45.991Z,16.10
2023-04-30T04:13:13.367Z,16.23
2023-04-30T04:15:40.802Z,16.00
2023-04-30T04:18:08.698Z,15.98
2023-04-30T04:20:36.351Z,15.82
2023-04-30T04:23:03.894Z,16.80
2023-04-30T04:25:33.473Z,17.85
2023-04-30T04:28:00.862Z,17.77
2023-04-30T04:30:28.252Z,17.02
2023-04-30T04:32:56.514Z,17.62
2023-04-30T04:35:23.904Z,19.33
2023-04-30T04:37:51.321Z,18.50
2023-04-30T04:40:18.910Z,19.20
2023-04-30T04:42:48.607Z,18.95
2023-04-30T04:45:16.233Z,18.20
2023-04-30T04:47:44.038Z,19.33
2023-04-30T04:50:11.468Z,19.50
2023-04-30T04:52:39.244Z,20.08
2023-04-30T04:55:07.367Z,20.37
2023-04-30T04:57:34.753Z,19.27
2023-04-30T05:00:02.278Z,20.02
2023-04-30T05:02:30.110Z,18.90
2023-04-30T05:04:57.643Z,18.48
2023-04-30T05:07:25.008Z,18.23
2023-04-30T05:09:53.189Z,17.55
2023-04-30T05:12:21.056Z,17.12
2023-04-30T05:14:49.487Z,17.33
2023-04-30T05:17:17.192Z,15.27
2023-04-30T05:19:45.294Z,16.17
2023-04-30T05:22:12.646Z,15.15
2023-04-30T05:24:40.386Z,13.27
2023-04-30T05:27:08.064Z,11.80
2023-04-30T05:29:35.492Z,11.60
2023-04-30T05:32:03.312Z,12.20
2023-04-30T05:34:30.767Z,12.02
2023-04-30T05:36:58.147Z,11.60
2023-04-30T05:39:25.750Z,12.15
2023-04-30T05:41:53.559Z,12.32
2023-04-30T05:44:21.286Z,12.80
2023-04-30T05:46:48.909Z,12.40
2023-04-30T05:49:16.285Z,11.82
2023-04-30T05:51:43.607Z,12.93
2023-04-30T05:54:11.258Z,11.63
2023-04-30T05:56:38.582Z,12.55
2023-04-30T05:59:05.929Z,13.18
2023-04-30T06:01:33.820Z,10.85
2023-04-30T06:04:01.689Z,12.30
2023-04-30T06:06:29.092Z,11.15
2023-04-30T06:08:56.461Z,11.50
2023-04-30T06:11:25.805Z,10.95
2023-04-30T06:13:53.147Z,10.73
2023-04-30T06:16:20.600Z,10.68
2023-04-30T06:18:48.271Z,10.27
2023-04-30T06:21:15.607Z,12.43
2023-04-30T06:23:42.945Z,11.07
2023-04-30T06:26:10.667Z,11.95
2023-04-30T06:28:38.014Z,11.52
2023-04-30T06:31:05.420Z,11.30
2023-04-30T06:33:33.122Z,11.50
2023-04-30T06:36:00.481Z,12.00
2023-04-30T06:38:27.846Z,11.80
2023-04-30T06:40:55.504Z,11.50
2023-04-30T06:43:22.859Z,11.80
2023-04-30T06:45:50.380Z,11.98
2023-04-30T06:48:18.001Z,11.77
2023-04-30T06:50:45.484Z,12.32
2023-04-30T06:53:12.937Z,11.45
2023-04-30T06:55:44.877Z,11.30
2023-04-30T06:58:12.451Z,12.57
2023-04-30T07:00:39.769Z,12.27
2023-04-30T07:03:08.083Z,12.63
2023-04-30T07:05:35.493Z,12.68
2023-04-30T07:08:03.600Z,13.35
2023-04-30T07:10:31.688Z,11.77
2023-04-30T07:12:59.348Z,12.18
2023-04-30T07:15:26.778Z,11.27
2023-04-30T07:17:55.298Z,12.07
2023-04-30T07:20:22.724Z,12.75
2023-04-30T07:22:50.108Z,11.77
2023-04-30T07:25:17.835Z,11.12
2023-04-30T07:27:45.382Z,11.30
2023-04-30T07:30:12.745Z,11.70
2023-04-30T07:32:41.586Z,11.30
2023-04-30T07:35:09.394Z,11.02
2023-04-30T07:37:37.182Z,10.32
2023-04-30T07:40:09.229Z,10.48
2023-04-30T07:42:36.602Z,11.40
2023-04-30T07:45:04.825Z,10.38
2023-04-30T07:47:32.540Z,11.50
2023-04-30T07:49:59.999Z,10.27
2023-04-30T07:52:27.423Z,10.48
2023-04-30T07:54:55.044Z,10.32
2023-04-30T07:57:22.392Z,10.70
2023-04-30T07:59:51.364Z,11.12
2023-04-30T08:02:21.201Z,10.68
2023-04-30T08:04:49.331Z,10.75
2023-04-30T08:07:16.842Z,11.30
2023-04-30T08:09:44.211Z,10.48
2023-04-30T08:12:11.829Z,9.95
2023-04-30T08:14:39.185Z,10.88
2023-04-30T08:17:06.770Z,9.93
2023-04-30T08:19:34.364Z,9.00
2023-04-30T08:22:01.753Z,8.90
2023-04-30T08:24:29.115Z,8.80
2023-04-30T08:26:56.734Z,10.30
2023-04-30T08:29:24.122Z,9.15
2023-04-30T08:31:52.233Z,9.75
2023-04-30T08:34:19.880Z,9.75
2023-04-30T08:36:47.221Z,9.25
2023-04-30T08:39:14.579Z,9.38
2023-04-30T08:41:42.533Z,9.55
2023-04-30T08:44:09.901Z,8.85
2023-04-30T08:46:37.818Z,8.85
2023-04-30T08:49:05.533Z,8.55
2023-04-30T08:51:33.435Z,8.20
2023-04-30T08:54:00.810Z,8.40
2023-04-30T08:56:31.253Z,8.02
2023-04-30T08:58:58.620Z,7.90
2023-04-30T09:01:26.095Z,8.13
2023-04-30T09:03:53.856Z,7.97
2023-04-30T09:06:21.346Z,8.05
2023-04-30T09:08:49.477Z,7.82
2023-04-30T09:11:23.762Z,8.15
2023-04-30T09:13:52.739Z,8.35
2023-04-30T09:16:21.347Z,8.18
2023-04-30T09:18:48.807Z,8.45
2023-04-30T09:21:16.177Z,8.50
2023-04-30T09:23:56.844Z,8.48
2023-04-30T09:26:34.947Z,8.93
2023-04-30T09:29:07.816Z,8.73
2023-04-30T09:31:38.899Z,9.32
2023-04-30T09:34:06.732Z,9.02
2023-04-30T09:36:34.326Z,9.35
2023-04-30T09:39:17.404Z,8.75
2023-04-30T09:41:45.014Z,8.43
2023-04-30T09:44:31.532Z,8.20
2023-04-30T09:46:59.368Z,8.05
2023-04-30T09:49:27.384Z,9.43
2023-04-30T09:51:56.570Z,8.80
2023-04-30T09:54:31.942Z,8.40
2023-04-30T09:57:01.521Z,9.27
2023-04-30T09:59:31.181Z,9.30
2023-04-30T10:02:02.572Z,8.60
2023-04-30T10:04:37.712Z,9.57
2023-04-30T10:07:15.426Z,10.45
2023-04-30T10:09:57.398Z,10.10
2023-04-30T10:12:27.719Z,8.90
2023-04-30T10:14:57.424Z,8.82
2023-04-30T10:17:27.319Z,8.80
2023-04-30T10:19:57.311Z,8.63
2023-04-30T10:22:24.662Z,8.70
2023-04-30T10:24:52.021Z,8.45
2023-04-30T10:27:19.633Z,8.80
2023-04-30T10:29:47.466Z,9.13
2023-04-30T10:32:14.874Z,9.40
2023-04-30T10:34:51.825Z,8.90
2023-04-30T10:37:24.304Z,8.95
2023-04-30T10:39:51.945Z,8.25
2023-04-30T10:42:19.355Z,8.27
2023-04-30T10:44:46.884Z,8.18
2023-04-30T10:47:14.498Z,8.35
2023-04-30T10:49:48.092Z,9.02
2023-04-30T10:52:16.522Z,7.95
2023-04-30T10:54:49.932Z,8.57
2023-04-30T10:57:18.386Z,8.75
2023-04-30T11:00:14.606Z,8.45
2023-04-30T11:02:44.183Z,8.70
2023-04-30T11:05:18.937Z,9.82
2023-04-30T11:07:50.513Z,9.30
2023-04-30T11:10:21.687Z,8.77
2023-04-30T11:12:52.513Z,9.25
2023-04-30T11:15:42.426Z,8.93
2023-04-30T11:18:10.180Z,9.02
2023-04-30T11:20:42.069Z,9.88
2023-04-30T11:23:19.539Z,9.60
2023-04-30T11:25:49.455Z,8.77
2023-04-30T11:28:22.925Z,8.43
2023-04-30T11:30:57.703Z,8.50
2023-04-30T11:33:26.810Z,8.45
2023-04-30T11:35:55.938Z,8.73
2023-04-30T11:38:26.915Z,8.27
2023-04-30T11:40:55.081Z,7.60
2023-04-30T11:43:26.835Z,8.65
2023-04-30T11:46:08.501Z,8.23
2023-04-30T11:48:37.872Z,7.50
2023-04-30T11:51:18.614Z,7.40
2023-04-30T11:53:47.075Z,7.60
2023-04-30T11:56:14.433Z,7.53
2023-04-30T11:58:41.866Z,8.43
2023-04-30T12:01:10.125Z,7.62
2023-04-30T12:03:56.332Z,7.43
2023-04-30T12:08:55.984Z,8.45
2023-04-30T12:11:26.785Z,8.07
2023-04-30T12:14:00.838Z,8.73
2023-04-30T12:16:28.735Z,7.60
2023-04-30T12:18:56.153Z,8.30
2023-04-30T12:21:23.542Z,8.35
2023-04-30T12:23:51.245Z,7.70
2023-04-30T12:26:18.616Z,8.00
2023-04-30T12:28:49.726Z,8.15
2023-04-30T12:31:18.114Z,8.45
2023-04-30T12:33:53.954Z,7.97
2023-04-30T12:36:21.640Z,7.60
2023-04-30T12:38:48.996Z,9.85
2023-04-30T12:41:17.518Z,8.05
2023-04-30T12:43:45.510Z,7.85
2023-04-30T12:46:12.964Z,7.80
2023-04-30T12:48:46.625Z,8.38
2023-04-30T12:51:19.511Z,7.37
2023-04-30T12:53:47.021Z,7.22
2023-04-30T12:56:16.347Z,7.12
2023-04-30T12:58:49.623Z,7.03
2023-04-30T13:01:18.721Z,7.57
2023-04-30T13:03:46.214Z,7.57
2023-04-30T13:06:13.948Z,7.53
2023-04-30T13:08:54.045Z,7.20
2023-04-30T13:11:26.301Z,6.87
2023-04-30T13:13:57.542Z,7.47
2023-04-30T13:16:25.413Z,7.93
2023-04-30T13:18:53.779Z,8.27
2023-04-30T13:21:21.338Z,7.12
2023-04-30T13:23:53.495Z,7.18
2023-04-30T13:26:23.458Z,6.90
2023-04-30T13:28:51.201Z,6.30
2023-04-30T13:31:18.617Z,6.78
2023-04-30T13:33:46.369Z,6.28
2023-04-30T13:36:13.703Z,7.28
2023-04-30T13:38:41.621Z,7.50
2023-04-30T13:41:09.345Z,6.82
2023-04-30T13:43:41.462Z,7.05
2023-04-30T13:46:10.004Z,7.30
2023-04-30T13:48:37.407Z,8.50
2023-04-30T13:51:04.820Z,7.40
2023-04-30T13:53:32.465Z,7.22
2023-04-30T13:55:59.805Z,6.93
2023-04-30T13:58:27.469Z,7.68
2023-04-30T14:00:55.162Z,7.07
2023-04-30T14:03:23.055Z,6.35
2023-04-30T14:05:50.927Z,6.50
2023-04-30T14:08:18.295Z,5.95
2023-04-30T14:10:45.945Z,6.30
2023-04-30T14:13:13.566Z,6.53
2023-04-30T14:15:40.917Z,7.30
2023-04-30T14:18:08.780Z,7.05
2023-04-30T14:20:36.330Z,6.22
2023-04-30T14:23:03.676Z,6.97
2023-04-30T14:25:31.541Z,6.37
2023-04-30T14:27:58.999Z,6.30
2023-04-30T14:30:26.514Z,6.30
2023-04-30T14:32:54.205Z,6.47
2023-04-30T14:35:21.558Z,6.57
2023-04-30T14:37:48.931Z,6.50
2023-04-30T14:40:16.612Z,7.47
2023-04-30T14:42:44.291Z,6.93
2023-04-30T14:45:11.768Z,7.10
2023-04-30T14:47:39.405Z,7.93
2023-04-30T14:50:06.924Z,7.18
2023-04-30T14:52:34.578Z,7.30
2023-04-30T14:55:03.236Z,7.60
2023-04-30T14:57:30.676Z,7.05
2023-04-30T14:59:59.486Z,7.25
2023-04-30T15:02:27.247Z,7.50
2023-04-30T15:04:54.664Z,7.05
2023-04-30T15:07:22.021Z,7.32
2023-04-30T15:09:49.623Z,7.40
2023-04-30T15:12:16.999Z,6.80
2023-04-30T15:14:44.848Z,7.80
2023-04-30T15:17:12.470Z,7.03
2023-04-30T15:19:39.916Z,7.53
2023-04-30T15:22:07.528Z,7.10
2023-04-30T15:24:36.238Z,7.72
2023-04-30T15:27:04.400Z,7.75
2023-04-30T15:29:31.794Z,7.03
2023-04-30T15:31:59.802Z,7.70
2023-04-30T15:34:27.322Z,8.23
2023-04-30T15:36:54.650Z,7.93
2023-04-30T15:39:22.358Z,8.52
2023-04-30T15:41:49.719Z,7.50
2023-04-30T15:44:17.034Z,7.37
2023-04-30T15:46:44.665Z,7.68
2023-04-30T15:49:12.142Z,7.80
2023-04-30T15:51:39.490Z,7.45
2023-04-30T15:54:07.481Z,7.72
2023-04-30T15:56:35.752Z,8.38
2023-04-30T15:59:03.162Z,7.97
2023-04-30T16:01:30.900Z,8.20
2023-04-30T16:04:00.415Z,8.00
2023-04-30T16:06:29.249Z,7.68
2023-04-30T16:08:56.703Z,7.32
2023-04-30T16:11:24.440Z,7.55
2023-04-30T16:13:52.107Z,7.30
2023-04-30T16:16:19.606Z,7.05
2023-04-30T16:18:47.278Z,6.93
2023-04-30T16:21:14.685Z,6.80
2023-04-30T16:23:42.518Z,6.97
2023-04-30T16:26:10.143Z,7.30
2023-04-30T16:28:37.492Z,7.43
2023-04-30T16:31:04.894Z,6.65
2023-04-30T16:33:32.524Z,7.07
2023-04-30T16:36:00.176Z,6.45
2023-04-30T16:38:27.578Z,7.57
2023-04-30T16:40:55.184Z,6.35
2023-04-30T16:43:22.565Z,7.07
2023-04-30T16:45:50.093Z,6.60
2023-04-30T16:48:17.735Z,6.00
2023-04-30T16:50:45.087Z,6.15
2023-04-30T16:53:12.467Z,6.20
2023-04-30T16:55:40.068Z,6.50
2023-04-30T16:58:07.433Z,7.68
2023-04-30T17:00:34.835Z,7.30
2023-04-30T17:03:02.565Z,8.30
2023-04-30T17:05:30.955Z,7.78
2023-04-30T17:07:58.311Z,6.90
2023-04-30T17:10:27.280Z,7.35
2023-04-30T17:12:57.633Z,7.18
2023-04-30T17:15:28.041Z,7.07
2023-04-30T17:17:56.959Z,6.55
2023-04-30T17:20:24.355Z,7.25
2023-04-30T17:22:53.329Z,6.35
2023-04-30T17:25:21.074Z,6.40
2023-04-30T17:27:48.493Z,6.25
2023-04-30T17:30:15.885Z,6.47
2023-04-30T17:32:44.183Z,6.60
2023-04-30T17:35:11.572Z,6.60
2023-04-30T17:37:38.963Z,6.40
2023-04-30T17:40:07.674Z,7.22
2023-04-30T17:42:35.199Z,7.50
2023-04-30T17:45:02.560Z,6.15
2023-04-30T17:47:31.642Z,6.35
2023-04-30T17:49:59.737Z,6.45
2023-04-30T17:52:27.184Z,5.72
2023-04-30T17:54:55.005Z,5.57
2023-04-30T17:57:22.447Z,5.05
2023-04-30T17:59:49.789Z,5.25
2023-04-30T18:02:17.487Z,4.72
2023-04-30T18:04:45.373Z,4.80
2023-04-30T18:07:12.697Z,4.22
2023-04-30T18:09:40.064Z,4.35
2023-04-30T18:12:07.722Z,4.22
2023-04-30T18:14:35.126Z,4.53
2023-04-30T18:17:02.676Z,4.72
2023-04-30T18:19:30.310Z,6.70
2023-04-30T18:21:57.733Z,10.48
2023-04-30T18:24:28.523Z,16.33
2023-04-30T18:26:56.188Z,18.12
2023-04-30T18:29:23.706Z,22.37
2023-04-30T18:31:51.114Z,24.60
2023-04-30T18:34:18.736Z,19.23
2023-04-30T18:36:46.099Z,14.82
2023-04-30T18:39:13.469Z,20.30
2023-04-30T18:41:41.150Z,18.37
2023-04-30T18:44:09.713Z,16.10
2023-04-30T18:46:37.112Z,11.12
2023-04-30T18:49:05.521Z,8.35
2023-04-30T18:51:32.901Z,8.55
2023-04-30T18:54:00.405Z,8.45
2023-04-30T18:56:28.005Z,7.45
2023-04-30T18:58:55.336Z,7.57
2023-04-30T19:01:24.392Z,7.60
2023-04-30T19:03:52.127Z,7.65
2023-04-30T19:06:19.523Z,7.45
2023-04-30T19:08:47.002Z,6.37
2023-04-30T19:11:15.072Z,7.85
2023-04-30T19:13:42.457Z,7.20
2023-04-30T19:16:09.854Z,7.07
2023-04-30T19:18:39.577Z,6.93
2023-04-30T19:21:07.209Z,7.57
2023-04-30T19:23:35.659Z,7.57
2023-04-30T19:26:03.433Z,7.95
2023-04-30T19:28:30.892Z,8.15
2023-04-30T19:30:58.477Z,7.37
2023-04-30T19:33:26.257Z,8.90
2023-04-30T19:35:54.637Z,9.38
2023-04-30T19:38:22.152Z,8.75
2023-04-30T19:40:52.000Z,9.95
2023-04-30T19:43:19.907Z,9.68
2023-04-30T19:45:49.768Z,10.07
2023-04-30T19:48:17.575Z,10.13
2023-04-30T19:50:45.494Z,11.38
2023-04-30T19:53:13.080Z,12.82
2023-04-30T19:55:40.798Z,11.35
2023-04-30T19:58:08.196Z,9.52
2023-04-30T20:00:44.056Z,10.15
2023-04-30T20:03:12.466Z,10.05
2023-04-30T20:05:39.926Z,10.68
2023-04-30T20:08:07.765Z,13.30
2023-04-30T20:10:36.335Z,12.43
2023-04-30T20:13:04.493Z,9.75
2023-04-30T20:15:31.973Z,9.57
2023-04-30T20:17:59.899Z,9.50
2023-04-30T20:20:28.416Z,9.38
2023-04-30T20:22:56.249Z,8.88
2023-04-30T20:25:29.430Z,9.32
2023-04-30T20:27:56.998Z,9.25
2023-04-30T20:30:24.609Z,8.95
2023-04-30T20:32:52.015Z,8.35
2023-04-30T20:35:19.484Z,7.80
2023-04-30T20:37:49.696Z,7.65
2023-04-30T20:40:17.081Z,8.10
2023-04-30T20:42:44.467Z,9.00
2023-04-30T20:45:12.130Z,9.23
2023-04-30T20:47:39.843Z,9.20
2023-04-30T20:50:10.421Z,8.43
2023-04-30T20:52:38.043Z,8.80
2023-04-30T20:55:05.710Z,8.55
2023-04-30T20:57:33.046Z,8.05
2023-04-30T21:00:00.774Z,9.32
2023-04-30T21:02:28.259Z,9.40
2023-04-30T21:04:55.920Z,9.77
2023-04-30T21:07:23.509Z,8.80
2023-04-30T21:09:50.917Z,8.02
2023-04-30T21:12:18.256Z,9.07
2023-04-30T21:14:45.918Z,8.98
2023-04-30T21:17:14.453Z,9.40
2023-04-30T21:19:41.783Z,9.52
2023-04-30T21:22:09.404Z,9.15
2023-04-30T21:24:36.936Z,13.00
2023-04-30T21:27:05.393Z,12.60
2023-04-30T21:29:33.957Z,12.30
2023-04-30T21:32:01.771Z,13.13
2023-04-30T21:34:32.700Z,13.82
2023-04-30T21:37:00.334Z,11.32
2023-04-30T21:39:27.654Z,12.93
2023-04-30T21:41:55.031Z,12.30
2023-04-30T21:44:22.664Z,12.52
2023-04-30T21:46:50.838Z,10.48
2023-04-30T21:49:18.352Z,11.00
2023-04-30T21:51:46.052Z,9.90
2023-04-30T21:54:13.412Z,9.35
2023-04-30T21:56:41.156Z,9.55
2023-04-30T21:59:08.750Z,9.27
2023-04-30T22:01:36.155Z,9.23
2023-04-30T22:04:04.640Z,9.52
2023-04-30T22:06:35.030Z,8.85
2023-04-30T22:09:02.482Z,9.50
2023-04-30T22:11:30.176Z,8.63
2023-04-30T22:13:57.727Z,9.50
2023-04-30T22:16:25.124Z,8.65
2023-04-30T22:18:52.758Z,8.48
2023-04-30T22:21:20.115Z,7.85
2023-04-30T22:23:47.648Z,7.43
2023-04-30T22:26:15.386Z,7.97
2023-04-30T22:28:42.756Z,7.12
2023-04-30T22:31:10.115Z,7.65
2023-04-30T22:33:37.805Z,7.78
2023-04-30T22:36:06.195Z,7.72
2023-04-30T22:38:33.762Z,7.60
2023-04-30T22:41:01.461Z,8.27
2023-04-30T22:43:30.378Z,7.95
2023-04-30T22:45:58.682Z,7.93
2023-04-30T22:48:27.701Z,8.68
2023-04-30T22:50:55.511Z,8.05
2023-04-30T22:53:22.976Z,8.27
2023-04-30T22:55:50.691Z,7.68
2023-04-30T22:58:18.350Z,7.65
2023-04-30T23:00:45.855Z,7.28
2023-04-30T23:03:13.560Z,7.75
2023-04-30T23:05:40.968Z,7.93
2023-04-30T23:08:08.342Z,7.68
2023-04-30T23:10:35.970Z,8.02
2023-04-30T23:13:03.328Z,7.40
2023-04-30T23:15:30.735Z,7.50
2023-04-30T23:18:00.330Z,7.00
2023-04-30T23:20:28.417Z,8.50
2023-04-30T23:22:56.198Z,7.82
2023-04-30T23:25:23.861Z,7.87
2023-04-30T23:27:51.633Z,7.70
2023-04-30T23:30:19.007Z,7.50
2023-04-30T23:32:46.648Z,7.07
2023-04-30T23:35:14.020Z,7.40
2023-04-30T23:37:41.377Z,6.75
2023-04-30T23:40:09.828Z,7.93
2023-04-30T23:42:37.204Z,8.48
2023-04-30T23:45:04.844Z,7.47
2023-04-30T23:47:36.040Z,7.32
2023-04-30T23:50:04.060Z,7.20
2023-04-30T23:52:31.987Z,7.55
2023-04-30T23:54:59.859Z,8.82
2023-04-30T23:57:28.118Z,7.45
2023-04-30T23:59:56.432Z,7.97
